Time;durP1;ratioP1;P1;durP2;ratioP2;P2;SDS_P1;SDS_P2;PMS_P1;PMS_P2;Temp;Humidity;BMP_temperature;BMP_pressure;BME280_temperature;BME280_humidity;BME280_pressure;Samples;Min_cycle;Max_cycle;Signal;HPM_P1;HPM_P2
2020/12/08 00:00:23;;;;;;;36.08;4.25;;;;;;;0.17;100.00;98147.13;5054737;28;20044;-74
2020/12/08 00:03:26;;;;;;;14.52;4.07;;;;;;;0.13;100.00;98146.50;5054775;28;20493;-76
2020/12/08 00:06:29;;;;;;;5.28;2.28;;;;;;;0.06;100.00;98146.75;5054273;28;20052;-75
2020/12/08 00:09:33;;;;;;;12.55;4.43;;;;;;;0.03;100.00;98142.16;5042214;28;20508;-75
2020/12/08 00:12:36;;;;;;;7.18;3.25;;;;;;;0.04;100.00;98149.94;5054186;28;20051;-76
2020/12/08 00:15:39;;;;;;;6.50;3.63;;;;;;;0.06;100.00;98144.78;5034017;28;20084;-75
2020/12/08 00:18:41;;;;;;;29.02;4.53;;;;;;;0.10;100.00;98152.88;5034258;28;20104;-75
2020/12/08 00:21:46;;;;;;;7.72;3.80;;;;;;;0.11;100.00;98144.19;5034264;28;20064;-75
2020/12/08 00:24:49;;;;;;;12.90;4.28;;;;;;;0.07;100.00;98140.06;5022385;28;20048;-76
2020/12/08 00:27:52;;;;;;;15.38;3.88;;;;;;;-0.02;100.00;98138.81;5034263;28;20564;-75
2020/12/08 00:30:55;;;;;;;22.02;4.80;;;;;;;-0.04;100.00;98138.50;5034754;28;20040;-75
2020/12/08 00:33:58;;;;;;;7.53;3.95;;;;;;;-0.03;100.00;98140.03;5034546;28;20456;-76
2020/12/08 00:37:01;;;;;;;16.80;4.30;;;;;;;-0.05;100.00;98131.50;5034227;28;20488;-75
2020/12/08 00:40:05;;;;;;;10.45;3.47;;;;;;;-0.07;100.00;98139.41;5034344;28;20044;-75
2020/12/08 00:43:08;;;;;;;4.85;1.65;;;;;;;-0.13;100.00;98141.16;5033876;28;20056;-75
2020/12/08 00:46:14;;;;;;;11.52;2.95;;;;;;;-0.11;100.00;98146.94;5033573;28;20465;-75
2020/12/08 00:49:18;;;;;;;8.35;3.25;;;;;;;-0.14;100.00;98139.66;5032080;28;20060;-76
2020/12/08 00:52:21;;;;;;;4.93;3.03;;;;;;;-0.17;100.00;98140.53;5033446;28;20088;-76
2020/12/08 00:55:23;;;;;;;11.93;4.07;;;;;;;-0.24;100.00;98127.09;5033244;28;20413;-75
2020/12/08 00:58:27;;;;;;;45.63;5.28;;;;;;;-0.29;100.00;98135.13;5033831;28;20053;-75
2020/12/08 01:01:30;;;;;;;5.90;2.38;;;;;;;-0.33;100.00;98134.47;5033405;28;20543;-75
2020/12/08 01:04:33;;;;;;;9.20;4.03;;;;;;;-0.35;100.00;98137.69;5033400;28;20140;-76
2020/12/08 01:07:36;;;;;;;31.70;6.25;;;;;;;-0.34;100.00;98133.72;5033590;28;20052;-76
2020/12/08 01:10:38;;;;;;;8.82;3.53;;;;;;;-0.29;100.00;98135.13;5033135;28;20091;-75
2020/12/08 01:13:41;;;;;;;7.97;2.70;;;;;;;-0.21;100.00;98139.88;5038381;28;20075;-75
2020/12/08 01:16:44;;;;;;;5.05;2.53;;;;;;;-0.15;100.00;98131.88;5052815;28;20060;-76
2020/12/08 01:19:47;;;;;;;9.40;3.17;;;;;;;-0.10;100.00;98137.53;5053125;28;20052;-77
2020/12/08 01:22:51;;;;;;;11.30;3.58;;;;;;;-0.08;100.00;98132.38;5053359;28;20079;-75
2020/12/08 01:25:54;;;;;;;6.05;1.88;;;;;;;-0.09;100.00;98141.03;5053427;28;20044;-75
2020/12/08 01:28:56;;;;;;;7.93;2.20;;;;;;;-0.17;100.00;98140.53;5053560;28;20452;-76
2020/12/08 01:31:59;;;;;;;11.45;2.17;;;;;;;-0.23;100.00;98142.31;5052410;28;20055;-75
2020/12/08 01:35:02;;;;;;;4.25;1.95;;;;;;;-0.28;100.00;98140.13;5039686;28;20086;-76
2020/12/08 01:38:05;;;;;;;5.40;1.45;;;;;;;-0.33;100.00;98138.00;5052253;28;20051;-75
2020/12/08 01:41:08;;;;;;;2.45;2.22;;;;;;;-0.37;100.00;98142.78;5052202;28;20063;-76
2020/12/08 01:44:14;;;;;;;2.78;1.58;;;;;;;-0.43;100.00;98144.56;5052427;28;20083;-76
2020/12/08 01:47:18;;;;;;;1.60;1.45;;;;;;;-0.52;100.00;98143.75;5052106;28;20136;-76
2020/12/08 01:50:21;;;;;;;5.40;2.53;;;;;;;-0.61;100.00;98144.44;5051836;28;20130;-76
2020/12/08 01:53:24;;;;;;;6.57;3.33;;;;;;;-0.67;100.00;98148.19;5052463;28;20110;-75
2020/12/08 01:56:27;;;;;;;7.57;2.03;;;;;;;-0.68;100.00;98155.59;5051965;28;20137;-75
2020/12/08 01:59:30;;;;;;;1.50;1.40;;;;;;;-0.68;100.00;98152.88;5052133;28;20102;-75
2020/12/08 02:02:32;;;;;;;1.92;1.77;;;;;;;-0.65;100.00;98151.97;5052159;28;20079;-75
2020/12/08 02:05:35;;;;;;;1.52;1.30;;;;;;;-0.58;100.00;98159.94;5052005;28;20079;-76
2020/12/08 02:08:38;;;;;;;8.77;1.58;;;;;;;-0.48;100.00;98163.53;5052402;28;20151;-75
2020/12/08 02:11:41;;;;;;;2.90;2.53;;;;;;;-0.43;100.00;98166.44;5051785;28;20068;-76
2020/12/08 02:14:44;;;;;;;1.83;1.20;;;;;;;-0.39;100.00;98163.63;5051950;28;20043;-76
2020/12/08 02:17:47;;;;;;;6.13;2.05;;;;;;;-0.35;100.00;98167.75;5052397;28;20127;-75
2020/12/08 02:20:57;;;;;;;4.15;2.17;;;;;;;-0.28;100.00;98164.00;5051700;28;20187;-76
2020/12/08 02:24:01;;;;;;;1.90;1.80;;;;;;;-0.27;100.00;98163.56;5051939;28;20103;-76
2020/12/08 02:27:05;;;;;;;3.42;1.52;;;;;;;-0.27;100.00;98160.81;5051626;28;20060;-76
2020/12/08 02:30:08;;;;;;;9.32;2.45;;;;;;;-0.30;100.00;98161.69;5051806;28;20092;-76
2020/12/08 02:33:11;;;;;;;11.32;1.75;;;;;;;-0.31;100.00;98162.91;5052028;28;20158;-75
2020/12/08 02:36:14;;;;;;;4.18;1.67;;;;;;;-0.30;100.00;98172.63;5051714;28;20051;-76
2020/12/08 02:39:17;;;;;;;6.47;2.20;;;;;;;-0.30;100.00;98167.16;5051585;28;20056;-76
2020/12/08 02:42:20;;;;;;;7.78;1.80;;;;;;;-0.29;100.00;98168.72;5051772;28;20627;-75
2020/12/08 02:45:23;;;;;;;7.55;3.15;;;;;;;-0.24;100.00;98181.78;5051464;28;20087;-76
2020/12/08 02:48:26;;;;;;;9.23;1.73;;;;;;;-0.19;100.00;98175.78;5051595;28;20044;-76
2020/12/08 02:51:29;;;;;;;1.33;1.20;;;;;;;-0.13;100.00;98179.44;5051810;28;20136;-76
2020/12/08 02:54:31;;;;;;;5.43;3.03;;;;;;;-0.08;100.00;98181.63;5051355;28;20461;-75
2020/12/08 02:57:34;;;;;;;9.95;2.55;;;;;;;-0.05;100.00;98178.00;5051585;28;20078;-76
2020/12/08 03:00:37;;;;;;;4.95;2.75;;;;;;;0.03;100.00;98170.31;5051423;28;20055;-76
2020/12/08 03:03:41;;;;;;;1.75;1.65;;;;;;;0.10;100.00;98178.25;5051903;28;20052;-76
2020/12/08 03:06:43;;;;;;;8.02;3.53;;;;;;;0.15;100.00;98185.91;5051920;28;20500;-75
2020/12/08 03:09:46;;;;;;;2.13;1.83;;;;;;;0.21;100.00;98180.59;5051728;28;20118;-75
2020/12/08 03:12:49;;;;;;;3.45;2.03;;;;;;;0.25;100.00;98176.53;5052083;28;20098;-76
2020/12/08 03:15:52;;;;;;;1.58;1.48;;;;;;;0.27;100.00;98185.06;5055079;28;20052;-76
2020/12/08 03:18:55;;;;;;;2.00;1.65;;;;;;;0.25;100.00;98175.75;5054891;28;20067;-76
2020/12/08 03:21:57;;;;;;;6.10;2.13;;;;;;;0.24;100.00;98179.72;5054894;28;20051;-76
2020/12/08 03:25:05;;;;;;;4.68;1.70;;;;;;;0.28;100.00;98186.56;5055044;28;20059;-75
2020/12/08 03:28:08;;;;;;;2.15;1.33;;;;;;;0.31;100.00;98187.66;5055012;28;20123;-76
2020/12/08 03:31:11;;;;;;;2.03;1.13;;;;;;;0.35;100.00;98180.06;5054786;28;20056;-76
2020/12/08 03:34:15;;;;;;;6.43;1.55;;;;;;;0.39;100.00;98192.41;5054499;28;20397;-77
2020/12/08 03:37:18;;;;;;;1.67;1.55;;;;;;;0.38;100.00;98173.72;5052531;28;20516;-77
2020/12/08 03:40:21;;;;;;;1.73;1.30;;;;;;;0.33;100.00;98186.00;5054417;28;20115;-77
2020/12/08 03:43:24;;;;;;;5.63;2.15;;;;;;;0.35;100.00;98186.31;5042108;28;20129;-78
2020/12/08 03:46:27;;;;;;;6.65;2.17;;;;;;;0.40;100.00;98182.25;5054292;28;20047;-77
2020/12/08 03:49:30;;;;;;;1.95;1.52;;;;;;;0.46;100.00;98185.91;5054162;28;20098;-77
2020/12/08 03:52:34;;;;;;;4.40;1.73;;;;;;;0.51;100.00;98190.81;5042277;28;20048;-76
2020/12/08 03:55:37;;;;;;;2.13;0.85;;;;;;;0.54;100.00;98187.19;5054177;28;20476;-77
2020/12/08 03:58:40;;;;;;;1.17;1.00;;;;;;;0.58;100.00;98188.59;5053983;28;20440;-77
2020/12/08 04:01:48;;;;;;;14.02;2.67;;;;;;;0.61;100.00;98186.91;5054039;28;20499;-77
2020/12/08 04:04:50;;;;;;;7.35;2.15;;;;;;;0.66;100.00;98184.38;5053440;28;20071;-77
2020/12/08 04:07:53;;;;;;;2.42;1.23;;;;;;;0.68;100.00;98186.66;5054098;28;20064;-77
2020/12/08 04:10:57;;;;;;;1.20;1.05;;;;;;;0.67;100.00;98190.63;5053790;28;20056;-77
2020/12/08 04:14:01;;;;;;;4.78;1.70;;;;;;;0.68;100.00;98186.66;5053900;28;20052;-77
2020/12/08 04:17:04;;;;;;;9.50;1.27;;;;;;;0.68;100.00;98192.13;5053804;28;20629;-77
2020/12/08 04:20:07;;;;;;;2.15;1.27;;;;;;;0.70;100.00;98197.91;5053771;28;20124;-77
2020/12/08 04:23:14;;;;;;;3.13;1.35;;;;;;;0.71;100.00;98197.44;5054014;28;20071;-76
2020/12/08 04:26:17;;;;;;;18.02;3.40;;;;;;;0.76;100.00;98201.59;5053118;28;20166;-76
2020/12/08 04:29:21;;;;;;;2.95;2.35;;;;;;;0.77;100.00;98200.38;5053669;28;20051;-77
2020/12/08 04:32:23;;;;;;;1.75;1.10;;;;;;;0.82;100.00;98204.53;5053852;28;20048;-78
2020/12/08 04:35:27;;;;;;;8.80;3.05;;;;;;;0.83;100.00;98208.78;5053307;28;20543;-78
2020/12/08 04:38:30;;;;;;;2.78;1.38;;;;;;;0.84;100.00;98216.56;5053243;28;20071;-76
2020/12/08 04:41:33;;;;;;;8.27;1.83;;;;;;;0.80;100.00;98210.47;5053618;28;20071;-76
2020/12/08 04:44:36;;;;;;;6.05;2.00;;;;;;;0.71;100.00;98215.88;5053229;28;20040;-76
2020/12/08 04:47:42;;;;;;;9.93;2.15;;;;;;;0.63;100.00;98211.88;5053006;28;20052;-77
2020/12/08 04:50:45;;;;;;;4.55;2.40;;;;;;;0.55;100.00;98214.13;5052793;28;20052;-76
2020/12/08 04:53:52;;;;;;;5.60;1.23;;;;;;;0.47;100.00;98214.84;5052975;28;20182;-77
2020/12/08 04:56:55;;;;;;;1.08;0.93;;;;;;;0.43;100.00;98225.16;5052869;28;20071;-76
2020/12/08 05:00:10;;;;;;;0.93;0.90;;;;;;;0.38;100.00;98233.94;5053373;28;20071;-76
2020/12/08 05:03:13;;;;;;;2.50;2.03;;;;;;;0.39;100.00;98235.47;5053017;28;20448;-77
2020/12/08 05:06:16;;;;;;;9.50;2.65;;;;;;;0.46;100.00;98229.72;5053002;28;20102;-77
2020/12/08 05:09:19;;;;;;;2.50;1.85;;;;;;;0.54;100.00;98239.22;5052685;28;20059;-77
2020/12/08 05:12:24;;;;;;;4.50;0.85;;;;;;;0.64;100.00;98232.59;5052545;28;20090;-77
2020/12/08 05:15:27;;;;;;;1.55;0.98;;;;;;;0.71;100.00;98224.84;5052296;28;20051;-76
2020/12/08 05:18:32;;;;;;;9.27;1.98;;;;;;;0.79;100.00;98225.34;5053046;28;20122;-76
2020/12/08 05:21:49;;;;;;;1.27;1.20;;;;;;;0.85;100.00;98229.03;5052553;28;20103;-76
2020/12/08 05:24:52;;;;;;;6.63;2.67;;;;;;;0.89;100.00;98224.16;5052457;28;20047;-76
2020/12/08 05:27:56;;;;;;;2.22;1.25;;;;;;;0.93;100.00;98224.06;5052746;28;20102;-76
2020/12/08 05:31:00;;;;;;;4.85;2.15;;;;;;;0.96;100.00;98223.13;5052402;28;20098;-76
2020/12/08 05:34:05;;;;;;;0.80;0.80;;;;;;;1.00;100.00;98229.25;5052444;28;20094;-77
2020/12/08 05:37:13;;;;;;;0.73;0.73;;;;;;;1.04;100.00;98236.09;5051745;28;20599;-76
2020/12/08 05:40:21;;;;;;;1.00;0.98;;;;;;;1.09;100.00;98224.56;5052137;28;20550;-77
2020/12/08 05:43:24;;;;;;;2.95;1.35;;;;;;;1.10;100.00;98223.38;5052212;28;20052;-77
2020/12/08 05:46:36;;;;;;;1.77;1.40;;;;;;;1.12;100.00;98237.38;5052275;28;20048;-76
2020/12/08 05:49:41;;;;;;;1.60;1.50;;;;;;;1.07;100.00;98221.50;5052293;28;20114;-76
2020/12/08 05:52:59;;;;;;;0.85;0.85;;;;;;;1.02;100.00;98230.31;5052292;28;20448;-77
2020/12/08 05:56:06;;;;;;;2.88;1.88;;;;;;;0.99;100.00;98231.25;5051729;28;20071;-77
2020/12/08 05:59:10;;;;;;;6.50;1.85;;;;;;;1.00;100.00;98238.22;5052084;28;20102;-77
2020/12/08 06:02:13;;;;;;;0.63;0.63;;;;;;;0.99;100.00;98238.69;5051892;28;20056;-76
2020/12/08 06:05:30;;;;;;;10.43;2.35;;;;;;;0.97;100.00;98236.41;5050908;28;20504;-77
2020/12/08 06:08:43;;;;;;;4.68;1.17;;;;;;;0.91;100.00;98238.19;5051978;28;20047;-77
2020/12/08 06:11:46;;;;;;;3.92;1.10;;;;;;;0.85;100.00;98250.94;5051570;28;20544;-77
2020/12/08 06:14:49;;;;;;;6.30;0.93;;;;;;;0.75;100.00;98252.13;5051301;28;20453;-76
2020/12/08 06:17:52;;;;;;;7.22;2.30;;;;;;;0.69;100.00;98253.94;5051613;28;20048;-76
2020/12/08 06:20:56;;;;;;;0.98;0.98;;;;;;;0.64;100.00;98260.75;5051788;28;20507;-76
2020/12/08 06:24:00;;;;;;;2.90;1.52;;;;;;;0.60;100.00;98260.13;5051578;28;20072;-76
2020/12/08 06:27:05;;;;;;;1.67;1.10;;;;;;;0.59;100.00;98255.84;5051818;28;20083;-76
2020/12/08 06:30:08;;;;;;;3.53;1.98;;;;;;;0.57;100.00;98257.50;5051305;28;20051;-76
2020/12/08 06:33:11;;;;;;;2.00;1.30;;;;;;;0.47;100.00;98253.19;5051735;28;20055;-76
2020/12/08 06:36:15;;;;;;;4.03;0.60;;;;;;;0.37;100.00;98254.34;5051649;28;20047;-77
2020/12/08 06:39:18;;;;;;;9.25;1.67;;;;;;;0.30;100.00;98260.81;5051369;28;20048;-76
2020/12/08 06:42:21;;;;;;;1.75;1.02;;;;;;;0.21;100.00;98260.75;5051636;28;20052;-76
2020/12/08 06:45:25;;;;;;;2.25;0.80;;;;;;;0.12;100.00;98248.97;5051225;28;20056;-77
2020/12/08 06:48:27;;;;;;;3.58;2.15;;;;;;;0.07;100.00;98263.19;5053291;28;20504;-76
2020/12/08 06:51:32;;;;;;;4.22;2.08;;;;;;;-0.01;100.00;98263.47;5055192;28;20499;-75
2020/12/08 06:54:35;;;;;;;1.27;1.13;;;;;;;-0.05;100.00;98262.06;5055214;28;20056;-76
2020/12/08 06:57:38;;;;;;;1.40;1.02;;;;;;;-0.11;100.00;98261.84;5054983;28;20114;-75
2020/12/08 07:00:47;;;;;;;2.28;1.35;;;;;;;-0.14;100.00;98264.72;5055133;28;20144;-75
2020/12/08 07:03:53;;;;;;;3.00;1.90;;;;;;;-0.17;100.00;98269.09;5055187;28;20055;-75
2020/12/08 07:06:59;;;;;;;1.05;0.93;;;;;;;-0.22;100.00;98280.59;5055288;28;20237;-76
2020/12/08 07:10:03;;;;;;;2.08;1.88;;;;;;;-0.24;100.00;98274.03;5054701;28;20048;-75
2020/12/08 07:13:16;;;;;;;5.03;0.57;;;;;;;-0.28;100.00;98276.88;5054772;28;20044;-75
2020/12/08 07:16:20;;;;;;;1.30;1.20;;;;;;;-0.31;100.00;98274.28;5034661;28;20044;-76
2020/12/08 07:19:23;;;;;;;3.72;0.80;;;;;;;-0.34;100.00;98281.38;5034984;28;20072;-75
2020/12/08 07:22:26;;;;;;;1.23;0.80;;;;;;;-0.36;100.00;98292.00;5034902;28;20099;-75
2020/12/08 07:25:29;;;;;;;2.13;1.23;;;;;;;-0.38;100.00;98291.69;5034576;28;20040;-76
2020/12/08 07:28:33;;;;;;;0.88;0.80;;;;;;;-0.35;100.00;98298.25;5034829;28;20049;-75
2020/12/08 07:31:45;;;;;;;3.92;1.83;;;;;;;-0.36;100.00;98300.19;5034543;28;20111;-76
2020/12/08 07:34:49;;;;;;;2.78;1.60;;;;;;;-0.34;100.00;98311.47;5034831;28;20060;-76
2020/12/08 07:37:57;;;;;;;1.52;0.82;;;;;;;-0.33;100.00;98313.00;5034660;28;20128;-76
2020/12/08 07:41:00;;;;;;;2.65;1.25;;;;;;;-0.28;100.00;98312.44;5034679;28;20088;-75
2020/12/08 07:44:11;;;;;;;1.50;1.40;;;;;;;-0.27;100.00;98324.91;5034771;28;20146;-76
2020/12/08 07:47:14;;;;;;;6.75;1.70;;;;;;;-0.26;100.00;98323.69;5034378;28;20056;-76
2020/12/08 07:50:26;;;;;;;0.70;0.70;;;;;;;-0.23;100.00;98328.31;5033813;28;20048;-76
2020/12/08 07:53:36;;;;;;;;;;;;;;;-0.22;100.00;98335.28;5034989;28;20136;-75
2020/12/08 07:56:39;;;;;;;3.30;1.45;;;;;;;-0.25;100.00;98336.19;5034789;28;19923;-76
2020/12/08 07:59:42;;;;;;;3.03;1.60;;;;;;;-0.24;100.00;98340.44;5033735;28;20049;-76
2020/12/08 08:02:45;;;;;;;0.82;0.82;;;;;;;-0.25;100.00;98340.88;5034104;28;20099;-76
2020/12/08 08:05:47;;;;;;;2.47;1.80;;;;;;;-0.24;100.00;98340.44;5034010;28;20071;-75
2020/12/08 08:08:51;;;;;;;2.03;1.08;;;;;;;-0.24;100.00;98340.44;5034240;28;20118;-75
2020/12/08 08:11:54;;;;;;;1.42;0.85;;;;;;;-0.20;100.00;98354.78;5034041;28;20068;-75
2020/12/08 08:14:56;;;;;;;1.08;1.08;;;;;;;-0.16;100.00;98349.97;5044872;28;20456;-75
2020/12/08 08:18:00;;;;;;;2.08;1.80;;;;;;;-0.10;100.00;98359.13;5021610;28;20055;-76
2020/12/08 08:21:03;;;;;;;1.58;1.30;;;;;;;-0.03;100.00;98350.69;5036359;28;20083;-75
2020/12/08 08:24:06;;;;;;;2.53;1.48;;;;;;;0.10;100.00;98358.09;5053702;28;20512;-75
2020/12/08 08:27:09;;;;;;;3.15;2.05;;;;;;;0.18;100.00;98362.13;5053635;28;20056;-75
2020/12/08 08:30:12;;;;;;;2.83;2.38;;;;;;;0.24;100.00;98354.91;5054103;28;20075;-75
2020/12/08 08:33:14;;;;;;;1.58;0.88;;;;;;;0.29;100.00;98360.56;5041576;28;20055;-76
2020/12/08 08:36:17;;;;;;;4.32;2.60;;;;;;;0.35;100.00;98371.72;5053341;28;20048;-75
2020/12/08 08:39:21;;;;;;;6.93;1.92;;;;;;;0.38;100.00;98368.09;5053953;28;20060;-75
2020/12/08 08:42:24;;;;;;;3.85;2.13;;;;;;;0.43;100.00;98364.81;5053320;28;20124;-75
2020/12/08 08:45:27;;;;;;;1.48;1.17;;;;;;;0.50;100.00;98372.75;5055508;28;20115;-76
2020/12/08 08:48:31;;;;;;;2.72;2.03;;;;;;;0.54;100.00;98379.63;5043273;28;20451;-76
2020/12/08 08:51:34;;;;;;;4.22;2.15;;;;;;;0.57;100.00;98372.50;5052874;28;20513;-76
2020/12/08 08:54:38;;;;;;;15.10;1.58;;;;;;;0.59;100.00;98365.38;5049386;28;20048;-76
2020/12/08 08:57:41;;;;;;;5.38;1.27;;;;;;;0.61;100.00;98368.44;5058887;28;20059;-75
2020/12/08 09:00:44;;;;;;;3.72;1.83;;;;;;;0.66;100.00;98375.34;5072733;28;20063;-76
2020/12/08 09:03:47;;;;;;;2.00;1.52;;;;;;;0.69;100.00;98380.69;5073103;28;20051;-76
2020/12/08 09:06:50;;;;;;;7.28;1.65;;;;;;;0.74;100.00;98382.09;5072746;28;20101;-76
2020/12/08 09:09:53;;;;;;;2.60;1.02;;;;;;;0.80;100.00;98382.28;5072343;28;20093;-76
2020/12/08 09:12:56;;;;;;;1.52;1.15;;;;;;;0.83;100.00;98387.63;5072675;28;20043;-76
2020/12/08 09:15:59;;;;;;;2.05;0.73;;;;;;;0.88;100.00;98387.06;5032434;28;20064;-76
2020/12/08 09:19:02;;;;;;;0.70;0.70;;;;;;;0.93;100.00;98397.47;5020822;28;20108;-76
2020/12/08 09:22:06;;;;;;;0.57;0.55;;;;;;;0.95;100.00;98397.78;5032570;28;20051;-76
2020/12/08 09:25:09;;;;;;;5.40;1.48;;;;;;;1.00;100.00;98399.16;5032513;28;20060;-76
2020/12/08 09:28:12;;;;;;;2.20;1.98;;;;;;;1.00;100.00;98388.97;5032505;28;20505;-76
2020/12/08 09:31:18;;;;;;;4.82;0.65;;;;;;;1.05;100.00;98385.66;5032254;28;20047;-76
2020/12/08 09:34:21;;;;;;;0.88;0.88;;;;;;;1.09;100.00;98391.00;5032337;28;20067;-76
2020/12/08 09:37:26;;;;;;;1.45;0.65;;;;;;;1.12;100.00;98384.63;5032532;28;20095;-76
2020/12/08 09:40:29;;;;;;;6.38;1.52;;;;;;;1.16;100.00;98391.53;5032598;28;20071;-76
2020/12/08 09:43:32;;;;;;;3.20;1.10;;;;;;;1.23;100.00;98390.50;5032706;28;20048;-76
2020/12/08 09:46:35;;;;;;;0.95;0.93;;;;;;;1.27;100.00;98396.59;5031919;28;20059;-76
2020/12/08 09:49:38;;;;;;;2.05;1.25;;;;;;;1.31;100.00;98395.25;5032029;28;20045;-75
2020/12/08 09:52:41;;;;;;;2.55;1.10;;;;;;;1.33;100.00;98395.56;5032011;28;20052;-77
2020/12/08 09:55:47;;;;;;;2.83;1.00;;;;;;;1.41;100.00;98412.50;5033463;28;20079;-76
2020/12/08 09:58:53;;;;;;;1.08;0.88;;;;;;;1.47;100.00;98405.25;5032703;28;20087;-77
2020/12/08 10:01:57;;;;;;;2.67;1.38;;;;;;;1.54;100.00;98411.22;5032263;28;20532;-77
2020/12/08 10:05:00;;;;;;;3.45;1.40;;;;;;;1.60;100.00;98407.91;5031891;28;20057;-76
2020/12/08 10:08:03;;;;;;;1.02;0.85;;;;;;;1.66;100.00;98400.59;5032087;28;20095;-78
2020/12/08 10:11:08;;;;;;;1.75;1.08;;;;;;;1.78;100.00;98407.97;5031889;28;20461;-76
2020/12/08 10:14:11;;;;;;;1.35;0.95;;;;;;;1.83;100.00;98410.91;5040844;28;20052;-76
2020/12/08 10:17:15;;;;;;;9.70;1.90;;;;;;;1.89;100.00;98406.34;5051752;28;20286;-77
2020/12/08 10:20:18;;;;;;;7.88;1.75;;;;;;;1.93;100.00;98415.19;5051693;28;20083;-77
2020/12/08 10:23:21;;;;;;;1.50;1.10;;;;;;;1.99;100.00;98423.63;5053668;28;20065;-76
2020/12/08 10:26:24;;;;;;;5.30;0.70;;;;;;;2.05;100.00;98419.06;5055722;28;20538;-77
2020/12/08 10:29:27;;;;;;;2.30;1.17;;;;;;;2.10;100.00;98423.97;5055930;28;20094;-77
2020/12/08 10:32:30;;;;;;;1.15;1.10;;;;;;;2.12;100.00;98413.28;5055388;28;20455;-76
2020/12/08 10:35:32;;;;;;;0.93;0.47;;;;;;;2.13;100.00;98423.81;5055555;28;20472;-76
2020/12/08 10:38:36;;;;;;;2.72;1.83;;;;;;;2.19;100.00;98419.25;5055622;28;20060;-76
2020/12/08 10:41:39;;;;;;;1.08;0.70;;;;;;;2.27;100.00;98422.47;5043240;28;20409;-76
2020/12/08 10:44:43;;;;;;;3.88;0.75;;;;;;;2.34;100.00;98424.91;5055681;28;20141;-77
2020/12/08 10:47:45;;;;;;;1.95;0.82;;;;;;;2.41;100.00;98421.88;5055282;28;20171;-75
2020/12/08 10:50:48;;;;;;;2.90;1.35;;;;;;;2.47;100.00;98420.03;5057188;28;20072;-77
2020/12/08 10:53:51;;;;;;;1.48;1.30;;;;;;;2.53;100.00;98431.97;5056287;28;20094;-77
2020/12/08 10:56:54;;;;;;;1.58;1.42;;;;;;;2.55;100.00;98421.31;5055441;28;20063;-77
2020/12/08 10:59:57;;;;;;;5.50;1.38;;;;;;;2.57;100.00;98421.59;5055176;28;20551;-77
2020/12/08 11:03:01;;;;;;;6.07;1.92;;;;;;;2.63;100.00;98427.25;5055043;28;20152;-76
2020/12/08 11:06:03;;;;;;;4.22;1.40;;;;;;;2.65;100.00;98420.06;5055003;28;20511;-76
2020/12/08 11:09:06;;;;;;;2.70;1.08;;;;;;;2.68;100.00;98424.66;5055192;28;20056;-76
2020/12/08 11:12:14;;;;;;;1.00;0.50;;;;;;;2.73;100.00;98420.56;5054832;28;20102;-76
2020/12/08 11:15:17;;;;;;;1.67;0.70;;;;;;;2.75;100.00;98412.63;5054903;28;20064;-76
2020/12/08 11:18:19;;;;;;;5.43;1.33;;;;;;;2.78;100.00;98417.19;5054681;28;20097;-77
2020/12/08 11:21:27;;;;;;;1.58;1.27;;;;;;;2.82;100.00;98407.56;5055054;28;20516;-77
2020/12/08 11:24:29;;;;;;;3.13;1.50;;;;;;;2.87;100.00;98417.19;5054212;28;20103;-75
2020/12/08 11:27:33;;;;;;;3.03;2.00;;;;;;;2.93;100.00;98413.38;5052204;28;20047;-75
2020/12/08 11:30:36;;;;;;;1.20;1.08;;;;;;;3.01;100.00;98409.06;5052569;28;20532;-75
2020/12/08 11:33:39;;;;;;;3.65;1.50;;;;;;;3.08;100.00;98408.78;5052828;28;20047;-76
2020/12/08 11:36:42;;;;;;;1.35;1.02;;;;;;;3.17;100.00;98407.22;5053097;28;20044;-74
2020/12/08 11:39:45;;;;;;;3.20;0.77;;;;;;;3.27;100.00;98403.25;5054512;28;20083;-75
2020/12/08 11:42:48;;;;;;;4.00;0.90;;;;;;;3.38;100.00;98409.03;5054682;28;20130;-76
2020/12/08 11:45:51;;;;;;;2.17;1.35;;;;;;;3.45;100.00;98400.44;5054332;28;20516;-76
2020/12/08 11:48:54;;;;;;;1.65;1.55;;;;;;;3.53;100.00;98404.41;5054357;28;20079;-75
2020/12/08 11:51:58;;;;;;;1.35;0.50;;;;;;;3.60;100.00;98404.06;5054324;28;20091;-76
2020/12/08 11:55:06;;;;;;;0.85;0.50;;;;;;;3.67;100.00;98406.50;5054105;28;20185;-75
2020/12/08 11:58:09;;;;;;;1.77;0.50;;;;;;;3.69;100.00;98401.28;5054267;28;20175;-75
2020/12/08 12:01:12;;;;;;;10.07;1.35;;;;;;;3.72;100.00;98400.38;5054056;28;20504;-76
2020/12/08 12:04:14;;;;;;;1.38;0.50;;;;;;;3.76;100.00;98400.97;5053970;28;20559;-75
2020/12/08 12:07:17;;;;;;;6.18;1.55;;;;;;;3.79;100.00;98394.50;5053667;28;20044;-76
2020/12/08 12:10:20;;;;;;;27.13;1.77;;;;;;;3.82;100.00;98397.09;5053882;28;20106;-75
2020/12/08 12:13:23;;;;;;;1.45;0.95;;;;;;;3.83;100.00;98389.63;5053615;28;20059;-77
2020/12/08 12:16:26;;;;;;;3.10;1.20;;;;;;;3.80;100.00;98402.31;5053717;28;20056;-75
2020/12/08 12:19:29;;;;;;;0.85;0.50;;;;;;;3.80;100.00;98393.28;5041102;28;20052;-75
2020/12/08 12:22:33;;;;;;;0.30;0.30;;;;;;;3.80;100.00;98387.78;5054145;28;20089;-77
2020/12/08 12:25:37;;;;;;;4.78;0.88;;;;;;;3.82;100.00;98391.59;5053622;28;20083;-78
2020/12/08 12:28:39;;;;;;;2.53;1.25;;;;;;;3.85;100.00;98392.66;5053493;28;20096;-77
2020/12/08 12:31:44;;;;;;;6.82;1.13;;;;;;;3.92;100.00;98386.78;5053965;28;20056;-75
2020/12/08 12:34:47;;;;;;;0.95;0.65;;;;;;;3.95;100.00;98390.63;5053550;28;20128;-77
2020/12/08 12:37:50;;;;;;;1.75;1.33;;;;;;;4.00;100.00;98395.50;5052935;28;20591;-76
2020/12/08 12:40:53;;;;;;;2.33;1.17;;;;;;;4.00;100.00;98396.25;5053006;28;20190;-76
2020/12/08 12:43:56;;;;;;;0.88;0.88;;;;;;;3.99;100.00;98397.47;5052812;28;20170;-77
2020/12/08 12:46:59;;;;;;;4.72;1.23;;;;;;;3.98;100.00;98406.22;5052135;28;20075;-74
2020/12/08 12:50:03;;;;;;;3.17;1.10;;;;;;;3.97;100.00;98399.94;5054255;28;20048;-78
2020/12/08 12:53:05;;;;;;;3.30;1.02;;;;;;;3.96;100.00;98398.44;5054925;28;20132;-78
2020/12/08 12:56:08;;;;;;;0.63;0.63;;;;;;;3.94;100.00;98398.13;5052716;28;20146;-75
2020/12/08 12:59:11;;;;;;;1.90;1.13;;;;;;;3.96;100.00;98403.16;5052956;28;20052;-76
2020/12/08 13:02:14;;;;;;;2.33;0.50;;;;;;;3.92;100.00;98403.31;5052468;28;20095;-77
2020/12/08 13:05:17;;;;;;;2.78;0.65;;;;;;;3.92;100.00;98414.34;5052463;28;20059;-76
2020/12/08 13:08:20;;;;;;;1.95;1.20;;;;;;;3.92;100.00;98400.56;5052466;28;20064;-75
2020/12/08 13:11:25;;;;;;;4.57;1.08;;;;;;;3.92;100.00;98408.81;5052140;28;20179;-75
2020/12/08 13:14:28;;;;;;;2.13;1.00;;;;;;;3.96;100.00;98395.69;5052522;28;20412;-75
2020/12/08 13:17:30;;;;;;;1.90;1.27;;;;;;;3.99;100.00;98403.00;5052804;28;20524;-75
2020/12/08 13:20:33;;;;;;;3.30;1.15;;;;;;;4.03;100.00;98397.31;5057891;28;20067;-76
2020/12/08 13:23:38;;;;;;;4.93;1.42;;;;;;;4.06;100.00;98401.88;5059268;28;20051;-77
2020/12/08 13:26:42;;;;;;;6.32;1.20;;;;;;;4.10;100.00;98400.50;5059077;28;20138;-77
2020/12/08 13:29:45;;;;;;;3.25;1.17;;;;;;;4.15;100.00;98405.38;5062377;28;20048;-77
2020/12/08 13:32:49;;;;;;;1.60;0.57;;;;;;;4.21;100.00;98395.22;5058753;28;20052;-77
2020/12/08 13:35:53;;;;;;;1.38;0.73;;;;;;;4.24;100.00;98388.03;5062160;28;20063;-77
2020/12/08 13:38:56;;;;;;;4.50;0.80;;;;;;;4.25;100.00;98390.31;5061619;28;20048;-77
2020/12/08 13:41:59;;;;;;;10.10;1.63;;;;;;;4.25;100.00;98393.06;5059856;28;20067;-76
2020/12/08 13:45:02;;;;;;;6.20;1.45;;;;;;;4.25;100.00;98393.06;5053757;28;20107;-76
2020/12/08 13:48:04;;;;;;;4.47;0.88;;;;;;;4.25;100.00;98387.53;5061390;28;20076;-77
2020/12/08 13:51:07;;;;;;;3.55;1.23;;;;;;;4.27;100.00;98387.06;5065229;28;20044;-77
2020/12/08 13:54:10;;;;;;;6.93;1.55;;;;;;;4.28;100.00;98394.13;5053565;28;20517;-77
2020/12/08 13:57:13;;;;;;;2.63;1.20;;;;;;;4.25;100.00;98390.31;5053119;28;20056;-76
2020/12/08 14:00:16;;;;;;;0.70;0.43;;;;;;;4.24;100.00;98397.06;5053819;28;20039;-77
2020/12/08 14:03:18;;;;;;;1.90;1.05;;;;;;;4.21;100.00;98395.22;5055181;28;20067;-75
2020/12/08 14:06:21;;;;;;;5.20;1.70;;;;;;;4.18;100.00;98398.16;5053221;28;20516;-75
2020/12/08 14:09:24;;;;;;;16.15;2.35;;;;;;;4.12;100.00;98400.78;5052357;28;20543;-76
2020/12/08 14:12:27;;;;;;;5.43;1.23;;;;;;;4.10;100.00;98397.72;5051955;28;20139;-76
2020/12/08 14:15:30;;;;;;;2.83;1.25;;;;;;;4.08;100.00;98400.19;5038989;28;20048;-76
2020/12/08 14:18:33;;;;;;;14.18;2.42;;;;;;;4.06;100.00;98394.38;5051726;28;20051;-76
2020/12/08 14:21:36;;;;;;;12.18;3.85;;;;;;;4.05;100.00;98403.88;5052047;28;20114;-75